Terminal Aerodrome Forecast
Issued by NWS

Home | Current Version | Previous Version | Text Only | Print | Product List | Glossary On
Versions: 1 2 3 4 5 6 7 8 9 10 11 12 13 14
617
FTPA31 PHFO 231744
TAFHKO
TAF
PHKO 231744Z 2318/2418 VRB05KT P6SM FEW060
     FM232100 24009KT P6SM BKN050
     FM240500 VRB05KT P6SM SCT050
     FM241000 07006KT P6SM FEW050=

USA.gov is the U.S. government's official web portal to all federal, state and local government web resources and services.